Terminal Aerodrome Forecast
Issued by NWS Portland, OR

Home | Current Version | Previous Version | Text Only | Print | Product List | Glossary On
Versions: 1 2 3 4 5 6 7 8 9 10 11 12 13 14 15 16 17 18 19 20 21 22 23 24 25 26 27 28 29 30 31 32 33 34 35 36
000
FTUS46 KPQR 182105 AAA
TAFHIO
TAF AMD
KHIO 182105Z 1821/1918 VRB03KT P6SM SCT008
     FM190130 00000KT 5SM BR BKN008
     FM190300 00000KT 1SM BR BKN004
     FM190400 00000KT 1/2SM FG VV002=

USA.gov is the U.S. government's official web portal to all federal, state and local government web resources and services.